createdAt,value
2023-01-25T00:01:56.981Z,102363.72
2023-01-25T00:04:25.715Z,102369.69
2023-01-25T00:06:54.105Z,102368.03
2023-01-25T00:09:24.808Z,102373.03
2023-01-25T00:11:56.458Z,102373.91
2023-01-25T00:14:25.359Z,102372.31
2023-01-25T00:16:54.097Z,102374.78
2023-01-25T00:19:24.026Z,102380.47
2023-01-25T00:21:52.536Z,102375.13
2023-01-25T00:24:23.147Z,102370.13
2023-01-25T00:26:53.203Z,102359.88
2023-01-25T00:29:22.067Z,102348.72
2023-01-25T00:32:09.860Z,102351.84
2023-01-25T00:34:47.943Z,102350.78
2023-01-25T00:37:25.545Z,102351.47
2023-01-25T00:39:54.371Z,102354.22
2023-01-25T00:42:24.704Z,102354.31
2023-01-25T00:44:53.098Z,102347.38
2023-01-25T00:47:21.556Z,102347.19
2023-01-25T00:49:50.385Z,102343.66
2023-01-25T00:52:18.900Z,102337.72
2023-01-25T00:54:47.308Z,102340.25
2023-01-25T00:57:15.927Z,102331.56
2023-01-25T00:59:53.450Z,102328.94
2023-01-25T01:02:21.945Z,102337.44
2023-01-25T01:04:50.672Z,102329.44
2023-01-25T01:07:19.179Z,102330.84
2023-01-25T01:09:47.846Z,102336.34
2023-01-25T01:12:16.262Z,102335.19
2023-01-25T01:14:46.128Z,102333.41
2023-01-25T01:17:14.526Z,102326.56
2023-01-25T01:19:42.958Z,102327.56
2023-01-25T01:22:11.927Z,102325.09
2023-01-25T01:24:40.715Z,102330.28
2023-01-25T01:27:09.161Z,102332.03
2023-01-25T01:29:37.561Z,102333.78
2023-01-25T01:32:07.864Z,102330.44
2023-01-25T01:34:36.550Z,102335.53
2023-01-25T01:37:04.975Z,102331.25
2023-01-25T01:39:33.427Z,102319.41
2023-01-25T01:42:01.850Z,102322.06
2023-01-25T01:44:47.338Z,102308.00
2023-01-25T01:47:23.389Z,102317.41
2023-01-25T01:49:56.881Z,102312.19
2023-01-25T01:52:30.043Z,102311.31
2023-01-25T01:55:03.555Z,102317.22
2023-01-25T01:57:37.411Z,102311.75
2023-01-25T02:00:11.366Z,102311.66
2023-01-25T02:02:42.566Z,102313.31
2023-01-25T02:05:19.344Z,102311.75
2023-01-25T02:07:50.515Z,102311.84
2023-01-25T02:10:20.244Z,102299.91
2023-01-25T02:12:49.895Z,102294.81
2023-01-25T02:15:18.325Z,102298.09
2023-01-25T02:17:50.558Z,102294.56
2023-01-25T02:20:27.740Z,102292.63
2023-01-25T02:23:04.623Z,102291.47
2023-01-25T02:25:34.866Z,102288.13
2023-01-25T02:28:10.413Z,102288.22
2023-01-25T02:30:38.970Z,102285.59
2023-01-25T02:33:07.392Z,102285.41
2023-01-25T02:35:43.405Z,102286.88
2023-01-25T02:38:14.247Z,102278.19
2023-01-25T02:40:49.410Z,102288.16
2023-01-25T02:43:19.240Z,102282.13
2023-01-25T02:45:53.621Z,102282.88
2023-01-25T02:48:22.005Z,102278.78
2023-01-25T02:50:50.563Z,102276.34
2023-01-25T02:53:18.944Z,102281.25
2023-01-25T02:55:48.736Z,102278.41
2023-01-25T02:58:17.184Z,102289.97
2023-01-25T03:00:45.943Z,102277.94
2023-01-25T03:03:14.937Z,102282.06
2023-01-25T03:05:43.367Z,102268.50
2023-01-25T03:08:11.947Z,102260.06
2023-01-25T03:10:40.380Z,102264.16
2023-01-25T03:13:11.338Z,102247.69
2023-01-25T03:15:39.790Z,102247.50
2023-01-25T03:18:08.244Z,102245.56
2023-01-25T03:20:36.729Z,102245.38
2023-01-25T03:23:05.126Z,102240.97
2023-01-25T03:25:33.646Z,102234.16
2023-01-25T03:28:02.056Z,102244.31
2023-01-25T03:30:32.281Z,102243.31
2023-01-25T03:33:00.730Z,102238.84
2023-01-25T03:35:30.812Z,102235.34
2023-01-25T03:37:59.249Z,102228.69
2023-01-25T03:40:27.642Z,102226.94
2023-01-25T03:42:56.708Z,102224.41
2023-01-25T03:45:25.184Z,102229.19
2023-01-25T03:47:55.286Z,102229.00
2023-01-25T03:50:23.811Z,102213.75
2023-01-25T03:52:58.959Z,102223.91
2023-01-25T03:55:27.433Z,102234.06
2023-01-25T03:57:56.000Z,102209.66
2023-01-25T04:00:24.655Z,102209.75
2023-01-25T04:02:54.412Z,102209.75
2023-01-25T04:05:22.876Z,102227.53
2023-01-25T04:07:51.345Z,102213.97
2023-01-25T04:10:19.916Z,102212.09
2023-01-25T04:12:48.486Z,102209.56
2023-01-25T04:15:17.500Z,102211.22
2023-01-25T04:17:46.178Z,102209.28
2023-01-25T04:20:16.204Z,102208.97
2023-01-25T04:22:44.571Z,102204.59
2023-01-25T04:25:13.249Z,102208.03
2023-01-25T04:27:41.654Z,102207.16
2023-01-25T04:30:11.896Z,102207.03
2023-01-25T04:32:40.398Z,102200.22
2023-01-25T04:35:10.465Z,102198.47
2023-01-25T04:37:40.556Z,102197.66
2023-01-25T04:40:11.479Z,102189.88
2023-01-25T04:42:39.904Z,102194.75
2023-01-25T04:45:09.778Z,102197.06
2023-01-25T04:47:38.405Z,102194.19
2023-01-25T04:50:07.554Z,102191.34
2023-01-25T04:52:36.060Z,102196.91
2023-01-25T04:55:06.734Z,102189.97
2023-01-25T04:57:35.679Z,102195.03
2023-01-25T05:00:04.382Z,102197.69
2023-01-25T05:02:32.915Z,102197.78
2023-01-25T05:05:01.374Z,102189.56
2023-01-25T05:07:29.976Z,102194.78
2023-01-25T05:09:58.430Z,102198.19
2023-01-25T05:12:28.289Z,102197.50
2023-01-25T05:14:56.632Z,102196.13
2023-01-25T05:17:25.142Z,102196.13
2023-01-25T05:19:53.483Z,102196.31
2023-01-25T05:22:22.012Z,102187.03
2023-01-25T05:24:50.547Z,102193.88
2023-01-25T05:27:20.764Z,102180.22
2023-01-25T05:29:50.659Z,102180.97
2023-01-25T05:32:21.672Z,102187.72
2023-01-25T05:34:50.703Z,102183.84
2023-01-25T05:37:22.013Z,102182.94
2023-01-25T05:39:50.410Z,102187.25
2023-01-25T05:42:20.165Z,102183.84
2023-01-25T05:44:50.620Z,102181.47
2023-01-25T05:47:19.849Z,102179.72
2023-01-25T05:49:48.557Z,102177.19
2023-01-25T05:52:18.393Z,102180.50
2023-01-25T05:54:46.931Z,102179.81
2023-01-25T05:57:16.313Z,102167.81
2023-01-25T05:59:44.992Z,102161.16
2023-01-25T06:02:14.932Z,102165.28
2023-01-25T06:04:43.369Z,102160.00
2023-01-25T06:07:11.910Z,102170.94
2023-01-25T06:09:40.351Z,102157.00
2023-01-25T06:12:10.828Z,102162.00
2023-01-25T06:14:39.276Z,102155.13
2023-01-25T06:17:07.716Z,102154.25
2023-01-25T06:19:38.622Z,102147.44
2023-01-25T06:22:09.201Z,102154.19
2023-01-25T06:24:37.775Z,102155.94
2023-01-25T06:27:06.276Z,102156.91
2023-01-25T06:29:34.608Z,102160.13
2023-01-25T06:32:02.957Z,102155.72
2023-01-25T06:34:31.886Z,102163.16
2023-01-25T06:37:02.319Z,102163.94
2023-01-25T06:39:31.152Z,102158.00
2023-01-25T06:41:59.985Z,102158.00
2023-01-25T06:44:29.964Z,102158.00
2023-01-25T06:46:58.903Z,102156.31
2023-01-25T06:49:27.353Z,102145.22
2023-01-25T06:52:01.084Z,102156.13
2023-01-25T06:54:31.013Z,102150.84
2023-01-25T06:56:59.773Z,102156.72
2023-01-25T06:59:28.534Z,102151.66
2023-01-25T07:01:57.393Z,102142.28
2023-01-25T07:04:25.952Z,102138.09
2023-01-25T07:06:54.588Z,102139.84
2023-01-25T07:09:24.542Z,102139.56
2023-01-25T07:11:54.731Z,102134.28
2023-01-25T07:14:23.529Z,102126.31
2023-01-25T07:16:54.980Z,102113.25
2023-01-25T07:19:23.981Z,102116.94
2023-01-25T07:21:52.768Z,102126.00
2023-01-25T07:24:27.274Z,102126.47
2023-01-25T07:26:57.643Z,102124.53
2023-01-25T07:29:26.630Z,102122.78
2023-01-25T07:31:55.607Z,102116.66
2023-01-25T07:34:26.610Z,102117.13
2023-01-25T07:36:55.253Z,102109.50
2023-01-25T07:39:23.916Z,102119.75
2023-01-25T07:41:52.708Z,102116.34
2023-01-25T07:44:22.716Z,102119.66
2023-01-25T07:46:53.179Z,102115.38
2023-01-25T07:49:21.776Z,102114.38
2023-01-25T07:51:50.470Z,102112.03
2023-01-25T07:54:18.936Z,102112.38
2023-01-25T07:56:47.412Z,102109.03
2023-01-25T07:59:18.653Z,102109.84
2023-01-25T08:01:51.283Z,102115.00
2023-01-25T08:04:19.769Z,102117.53
2023-01-25T08:06:50.587Z,102102.97
2023-01-25T08:09:20.935Z,102107.38
2023-01-25T08:11:52.623Z,102105.06
2023-01-25T08:14:21.209Z,102109.72
2023-01-25T08:16:51.183Z,102108.34
2023-01-25T08:19:20.201Z,102107.56
2023-01-25T08:21:48.899Z,102106.69
2023-01-25T08:24:17.456Z,102110.31
2023-01-25T08:26:46.683Z,102099.28
2023-01-25T08:29:15.196Z,102101.81
2023-01-25T08:31:45.356Z,102091.59
2023-01-25T08:34:18.201Z,102093.16
2023-01-25T08:36:46.614Z,102086.34
2023-01-25T08:39:14.992Z,102088.06
2023-01-25T08:41:43.822Z,102077.06
2023-01-25T08:44:12.612Z,102085.06
2023-01-25T08:46:41.348Z,102079.28
2023-01-25T08:49:10.887Z,102085.34
2023-01-25T08:51:41.201Z,102084.56
2023-01-25T08:54:13.651Z,102084.69
2023-01-25T08:56:43.003Z,102074.53
2023-01-25T08:59:14.373Z,102071.59
2023-01-25T09:01:43.003Z,102069.16
2023-01-25T09:04:12.551Z,102073.34
2023-01-25T09:06:42.364Z,102066.53
2023-01-25T09:09:10.781Z,102071.59
2023-01-25T09:11:40.434Z,102069.16
2023-01-25T09:14:08.901Z,102067.41
2023-01-25T09:16:38.924Z,102061.94
2023-01-25T09:19:08.472Z,102054.16
2023-01-25T09:21:37.268Z,102054.94
2023-01-25T09:24:09.140Z,102052.31
2023-01-25T09:26:44.546Z,102059.25
2023-01-25T09:29:18.032Z,102046.84
2023-01-25T09:31:48.444Z,102053.00
2023-01-25T09:34:21.426Z,102048.78
2023-01-25T09:36:50.547Z,102041.06
2023-01-25T09:39:22.841Z,102029.19
2023-01-25T09:42:34.364Z,102020.63
2023-01-25T09:45:32.474Z,102017.38
2023-01-25T09:48:21.817Z,102015.91
2023-01-25T09:51:14.644Z,102015.91
2023-01-25T09:53:48.445Z,102015.03
2023-01-25T09:56:26.559Z,102021.78
2023-01-25T09:58:59.734Z,102017.50
2023-01-25T10:01:38.946Z,102015.72
2023-01-25T10:04:16.259Z,102005.69
2023-01-25T10:06:59.769Z,102006.47
2023-01-25T10:09:41.037Z,102005.56
2023-01-25T10:12:20.387Z,102003.25
2023-01-25T10:14:52.864Z,101993.56
2023-01-25T10:17:33.569Z,101991.34
2023-01-25T10:20:20.057Z,101990.63
2023-01-25T10:22:54.232Z,101982.25
2023-01-25T10:25:36.088Z,101989.06
2023-01-25T10:28:30.272Z,101979.19
2023-01-25T10:31:03.718Z,101985.13
2023-01-25T10:33:38.016Z,101967.13
2023-01-25T10:36:08.430Z,101958.44
2023-01-25T10:38:42.431Z,101955.84
2023-01-25T10:41:20.340Z,101953.09
2023-01-25T10:44:10.155Z,101940.25
2023-01-25T10:46:41.857Z,101939.38
2023-01-25T10:49:25.017Z,101942.59
2023-01-25T10:51:53.715Z,101940.06
2023-01-25T10:54:24.942Z,101934.31
2023-01-25T10:56:54.512Z,101937.97
2023-01-25T10:59:28.801Z,101939.72
2023-01-25T11:02:02.577Z,101940.88
2023-01-25T11:04:38.555Z,101934.16
2023-01-25T11:07:07.205Z,101928.91
2023-01-25T11:09:43.075Z,101924.44
2023-01-25T11:12:20.995Z,101922.75
2023-01-25T11:14:52.943Z,101915.25
2023-01-25T11:17:31.853Z,101907.47
2023-01-25T11:20:22.275Z,101906.50
2023-01-25T11:22:53.843Z,101893.56
2023-01-25T11:25:33.207Z,101885.88
2023-01-25T11:28:21.932Z,101885.88
2023-01-25T11:30:53.998Z,101884.28
2023-01-25T11:33:24.303Z,101890.41
2023-01-25T11:36:23.791Z,101888.84
2023-01-25T11:39:15.982Z,101882.31
2023-01-25T11:42:04.277Z,101877.22
2023-01-25T11:45:11.252Z,101881.50
2023-01-25T11:48:01.436Z,101885.00
2023-01-25T11:50:36.863Z,101875.66
2023-01-25T11:53:49.474Z,101877.50
2023-01-25T11:56:34.259Z,101869.88
2023-01-25T11:59:31.633Z,101860.34
2023-01-25T12:02:27.551Z,101850.28
2023-01-25T12:05:22.442Z,101847.94
2023-01-25T12:08:00.557Z,101850.47
2023-01-25T12:10:40.338Z,101841.13
2023-01-25T12:13:20.591Z,101829.22
2023-01-25T12:16:13.764Z,101840.94
2023-01-25T12:19:39.464Z,101830.63
2023-01-25T12:22:57.123Z,101819.25
2023-01-25T12:25:37.465Z,101818.38
2023-01-25T12:28:16.181Z,101808.22
2023-01-25T12:30:53.917Z,101810.69
2023-01-25T12:33:29.439Z,101806.47
2023-01-25T12:36:06.414Z,101812.44
2023-01-25T12:38:41.372Z,101805.06
2023-01-25T12:41:22.204Z,101816.19
2023-01-25T12:43:56.002Z,101812.06
2023-01-25T12:46:32.876Z,101814.59
2023-01-25T12:49:09.425Z,101807.81
2023-01-25T12:51:42.765Z,101800.88
2023-01-25T12:54:24.007Z,101813.66
2023-01-25T12:57:04.447Z,101802.72
2023-01-25T12:59:44.212Z,101803.84
2023-01-25T13:02:48.853Z,101799.94
2023-01-25T13:05:29.473Z,101794.25
2023-01-25T13:08:23.197Z,101796.19
2023-01-25T13:11:14.107Z,101787.63
2023-01-25T13:13:42.735Z,101785.34
2023-01-25T13:16:43.587Z,101783.75
2023-01-25T13:19:23.124Z,101766.88
2023-01-25T13:21:56.673Z,101768.00
2023-01-25T13:24:26.483Z,101764.69
2023-01-25T13:27:06.296Z,101760.59
2023-01-25T13:30:03.925Z,101757.19
2023-01-25T13:33:07.805Z,101757.25
2023-01-25T13:35:45.636Z,101749.63
2023-01-25T13:38:36.604Z,101750.50
2023-01-25T13:41:18.499Z,101754.88
2023-01-25T13:44:17.931Z,101748.94
2023-01-25T13:46:46.320Z,101747.09
2023-01-25T13:49:25.806Z,101741.06
2023-01-25T13:51:58.442Z,101728.94
2023-01-25T13:54:27.263Z,101725.41
2023-01-25T13:57:05.936Z,101729.72
2023-01-25T13:59:36.111Z,101724.78
2023-01-25T14:02:05.148Z,101714.66
2023-01-25T14:04:33.963Z,101716.50
2023-01-25T14:07:10.126Z,101719.03
2023-01-25T14:09:43.575Z,101716.41
2023-01-25T14:12:13.460Z,101716.41
2023-01-25T14:14:44.711Z,101717.09
2023-01-25T14:17:19.333Z,101712.66
2023-01-25T14:19:50.695Z,101725.34
2023-01-25T14:22:26.420Z,101711.00
2023-01-25T14:25:08.518Z,101696.75
2023-01-25T14:27:42.256Z,101700.34
2023-01-25T14:30:20.451Z,101697.00
2023-01-25T14:32:50.485Z,101695.56
2023-01-25T14:35:53.779Z,101691.38
2023-01-25T14:38:30.418Z,101685.59
2023-01-25T14:41:13.665Z,101682.09
2023-01-25T14:43:45.503Z,101674.16
2023-01-25T14:46:24.147Z,101678.44
2023-01-25T14:48:53.831Z,101673.38
2023-01-25T14:51:29.906Z,101671.81
2023-01-25T14:54:02.579Z,101665.06
2023-01-25T14:56:42.590Z,101651.56
2023-01-25T14:59:36.343Z,101653.25
2023-01-25T15:02:21.182Z,101654.81
2023-01-25T15:04:57.162Z,101649.66
2023-01-25T15:07:46.414Z,101648.09
2023-01-25T15:10:23.078Z,101645.47
2023-01-25T15:13:11.914Z,101642.00
2023-01-25T15:15:55.313Z,101636.13
2023-01-25T15:18:45.589Z,101642.69
2023-01-25T15:21:16.361Z,101635.88
2023-01-25T15:23:50.254Z,101640.06
2023-01-25T15:26:23.908Z,101627.22
2023-01-25T15:28:55.183Z,101632.31
2023-01-25T15:31:28.849Z,101626.19
2023-01-25T15:34:01.538Z,101618.31
2023-01-25T15:36:32.097Z,101618.16
2023-01-25T15:39:00.860Z,101617.25
2023-01-25T15:41:29.389Z,101614.50
2023-01-25T15:43:57.778Z,101609.34
2023-01-25T15:46:29.919Z,101614.31
2023-01-25T15:48:59.945Z,101609.25
2023-01-25T15:51:28.815Z,101604.97
2023-01-25T15:53:57.280Z,101600.78
2023-01-25T15:56:29.049Z,101603.41
2023-01-25T15:59:03.360Z,101599.09
2023-01-25T16:01:32.254Z,101609.41
2023-01-25T16:04:02.344Z,101605.22
2023-01-25T16:06:42.001Z,101602.50
2023-01-25T16:09:20.251Z,101599.03
2023-01-25T16:11:51.992Z,101593.09
2023-01-25T16:14:20.934Z,101590.38
2023-01-25T16:16:53.325Z,101581.81
2023-01-25T16:19:26.031Z,101590.47
2023-01-25T16:21:54.425Z,101587.16
2023-01-25T16:24:25.357Z,101578.81
2023-01-25T16:26:56.246Z,101579.78
2023-01-25T16:29:25.539Z,101584.06
2023-01-25T16:31:55.164Z,101575.66
2023-01-25T16:34:26.542Z,101568.94
2023-01-25T16:36:57.645Z,101569.72
2023-01-25T16:39:28.292Z,101565.38
2023-01-25T16:41:58.620Z,101560.31
2023-01-25T16:44:27.167Z,101562.84
2023-01-25T16:46:56.435Z,101556.97
2023-01-25T16:49:27.612Z,101553.47
2023-01-25T16:51:57.064Z,101547.63
2023-01-25T16:54:27.699Z,101547.53
2023-01-25T16:56:56.650Z,101536.69
2023-01-25T16:59:26.652Z,101533.34
2023-01-25T17:01:55.425Z,101530.81
2023-01-25T17:04:25.212Z,101524.88
2023-01-25T17:07:00.887Z,101516.25
2023-01-25T17:09:29.914Z,101522.34
2023-01-25T17:11:58.388Z,101526.63
2023-01-25T17:14:26.768Z,101526.63
2023-01-25T17:16:55.209Z,101514.66
2023-01-25T17:19:25.142Z,101517.97
2023-01-25T17:21:54.339Z,101519.75
2023-01-25T17:24:23.134Z,101513.72
2023-01-25T17:26:53.364Z,101517.22
2023-01-25T17:29:21.950Z,101498.44
2023-01-25T17:31:50.599Z,101504.66
2023-01-25T17:34:21.942Z,101500.41
2023-01-25T17:36:53.846Z,101500.41
2023-01-25T17:39:22.770Z,101504.66
2023-01-25T17:41:52.828Z,101499.53
2023-01-25T17:44:22.717Z,101499.75
2023-01-25T17:46:52.060Z,101499.94
2023-01-25T17:49:22.604Z,101500.91
2023-01-25T17:51:52.593Z,101491.69
2023-01-25T17:54:21.037Z,101490.13
2023-01-25T17:56:49.850Z,101480.69
2023-01-25T17:59:18.489Z,101467.94
2023-01-25T18:01:47.430Z,101469.59
2023-01-25T18:04:18.299Z,101478.13
2023-01-25T18:06:46.890Z,101471.41
2023-01-25T18:09:17.103Z,101468.88
2023-01-25T18:11:45.816Z,101463.16
2023-01-25T18:14:17.183Z,101458.09
2023-01-25T18:16:45.783Z,101462.63
2023-01-25T18:19:17.115Z,101456.84
2023-01-25T18:21:45.964Z,101461.00
2023-01-25T18:24:32.713Z,101463.47
2023-01-25T18:27:06.187Z,101466.97
2023-01-25T18:29:47.751Z,101464.44
2023-01-25T18:32:17.005Z,101469.59
2023-01-25T18:34:48.186Z,101458.56
2023-01-25T18:37:20.919Z,101469.66
2023-01-25T18:39:53.195Z,101461.09
2023-01-25T18:42:24.089Z,101468.72
2023-01-25T18:44:52.858Z,101457.72
2023-01-25T18:47:23.537Z,101449.84
2023-01-25T18:49:54.153Z,101455.72
2023-01-25T18:52:24.845Z,101462.50
2023-01-25T18:54:54.903Z,101454.91
2023-01-25T18:57:23.505Z,101458.25
2023-01-25T18:59:52.705Z,101455.66
2023-01-25T19:02:22.948Z,101458.94
2023-01-25T19:04:51.589Z,101459.06
2023-01-25T19:07:20.062Z,101451.44
2023-01-25T19:09:48.464Z,101445.56
2023-01-25T19:12:18.232Z,101447.41
2023-01-25T19:14:46.776Z,101446.69
2023-01-25T19:17:15.224Z,101444.22
2023-01-25T19:19:44.335Z,101436.69
2023-01-25T19:22:13.022Z,101432.56
2023-01-25T19:24:41.416Z,101420.69
2023-01-25T19:27:09.914Z,101420.81
2023-01-25T19:29:39.964Z,101423.50
2023-01-25T19:32:10.923Z,101417.56
2023-01-25T19:34:39.719Z,101415.75
2023-01-25T19:37:08.118Z,101418.28
2023-01-25T19:39:37.164Z,101412.13
2023-01-25T19:42:06.820Z,101406.97
2023-01-25T19:44:35.186Z,101421.47
2023-01-25T19:47:05.284Z,101416.38
2023-01-25T19:49:33.670Z,101411.31
2023-01-25T19:52:02.073Z,101403.88
2023-01-25T19:54:30.691Z,101397.97
2023-01-25T19:56:59.465Z,101399.75
2023-01-25T19:59:28.985Z,101390.53
2023-01-25T20:01:57.573Z,101380.53
2023-01-25T20:04:27.363Z,101378.16
2023-01-25T20:06:56.015Z,101374.81
2023-01-25T20:09:28.157Z,101369.75
2023-01-25T20:11:58.297Z,101364.69
2023-01-25T20:14:26.755Z,101365.53
2023-01-25T20:16:55.481Z,101363.91
2023-01-25T20:19:23.863Z,101358.03
2023-01-25T20:21:54.385Z,101346.22
2023-01-25T20:24:22.946Z,101358.19
2023-01-25T20:26:52.502Z,101356.66
2023-01-25T20:29:21.499Z,101353.22
2023-01-25T20:31:50.593Z,101353.38
2023-01-25T20:34:21.654Z,101341.44
2023-01-25T20:36:50.862Z,101337.38
2023-01-25T20:39:23.096Z,101343.31
2023-01-25T20:41:53.539Z,101342.59
2023-01-25T20:44:22.643Z,101345.88
2023-01-25T20:46:54.421Z,101339.81
2023-01-25T20:49:23.219Z,101340.69
2023-01-25T20:51:51.664Z,101332.44
2023-01-25T20:54:21.797Z,101325.78
2023-01-25T20:56:50.510Z,101339.31
2023-01-25T20:59:19.400Z,101331.66
2023-01-25T21:01:48.386Z,101331.66
2023-01-25T21:04:16.846Z,101329.78
2023-01-25T21:06:46.289Z,101335.47
2023-01-25T21:09:14.781Z,101336.28
2023-01-25T21:11:44.666Z,101329.47
2023-01-25T21:14:13.196Z,101331.19
2023-01-25T21:16:41.628Z,101334.53
2023-01-25T21:19:10.040Z,101324.38
2023-01-25T21:21:38.741Z,101319.31
2023-01-25T21:24:08.304Z,101314.97
2023-01-25T21:26:38.433Z,101314.91
2023-01-25T21:29:09.073Z,101314.09
2023-01-25T21:31:39.875Z,101307.44
2023-01-25T21:34:09.275Z,101304.91
2023-01-25T21:36:37.884Z,101296.34
2023-01-25T21:39:06.489Z,101305.75
2023-01-25T21:41:35.558Z,101303.13
2023-01-25T21:44:22.439Z,101303.13
2023-01-25T21:47:19.722Z,101307.50
2023-01-25T21:49:58.770Z,101306.78
2023-01-25T21:52:27.207Z,101301.72
2023-01-25T21:54:55.769Z,101295.81
2023-01-25T21:57:24.229Z,101305.31
2023-01-25T21:59:54.407Z,101311.34
2023-01-25T22:02:24.429Z,101302.94
2023-01-25T22:04:52.811Z,101298.72
2023-01-25T22:07:21.311Z,101305.69
2023-01-25T22:09:50.329Z,101303.94
2023-01-25T22:12:19.474Z,101296.41
2023-01-25T22:14:47.856Z,101300.75
2023-01-25T22:17:16.338Z,101289.88
2023-01-25T22:19:46.075Z,101290.81
2023-01-25T22:22:14.772Z,101291.63
2023-01-25T22:24:43.222Z,101290.66
2023-01-25T22:27:38.882Z,101294.97
2023-01-25T22:30:11.127Z,101284.88
2023-01-25T22:32:39.833Z,101279.75
2023-01-25T22:35:11.191Z,101279.88
2023-01-25T22:37:41.054Z,101276.44
2023-01-25T22:40:11.773Z,101275.66
2023-01-25T22:42:40.457Z,101269.84
2023-01-25T22:45:10.146Z,101267.25
2023-01-25T22:47:38.581Z,101266.38
2023-01-25T22:50:10.627Z,101259.69
2023-01-25T22:52:40.456Z,101264.00
2023-01-25T22:55:10.231Z,101262.19
2023-01-25T22:57:38.981Z,101258.69
2023-01-25T23:00:09.931Z,101261.31
2023-01-25T23:02:38.567Z,101260.44
2023-01-25T23:05:10.986Z,101256.09
2023-01-25T23:07:39.415Z,101251.16
2023-01-25T23:10:10.242Z,101240.06
2023-01-25T23:12:39.262Z,101237.38
2023-01-25T23:15:15.787Z,101234.06
2023-01-25T23:18:02.357Z,101227.31
2023-01-25T23:20:32.932Z,101223.03
2023-01-25T23:23:01.365Z,101228.16
2023-01-25T23:25:30.799Z,101225.63
2023-01-25T23:27:59.444Z,101212.13
2023-01-25T23:30:28.044Z,101207.91
2023-01-25T23:32:56.402Z,101204.66
2023-01-25T23:35:24.924Z,101207.34
2023-01-25T23:37:54.923Z,101201.59
2023-01-25T23:40:24.656Z,101199.25
2023-01-25T23:42:53.431Z,101196.94
2023-01-25T23:45:22.442Z,101193.50
2023-01-25T23:47:51.924Z,101192.88
2023-01-25T23:50:20.429Z,101182.78
2023-01-25T23:52:48.808Z,101188.91
2023-01-25T23:55:18.663Z,101187.47
2023-01-25T23:57:47.270Z,101179.91
